sensor_id;sensor_type;location;lat;lon;timestamp;P1;durP1;ratioP1;P2;durP2;ratioP2
11598;SDS011;5855;48.840;9.188;2022-08-03T00:00:18;5.63;;;3.33;;
11598;SDS011;5855;48.840;9.188;2022-08-03T00:02:45;4.95;;;3.58;;
11598;SDS011;5855;48.840;9.188;2022-08-03T00:05:11;4.65;;;2.90;;
11598;SDS011;5855;48.840;9.188;2022-08-03T00:07:38;4.60;;;3.67;;
11598;SDS011;5855;48.840;9.188;2022-08-03T00:10:05;4.25;;;3.60;;
11598;SDS011;5855;48.840;9.188;2022-08-03T00:12:33;3.65;;;3.08;;
11598;SDS011;5855;48.840;9.188;2022-08-03T00:15:00;4.53;;;3.50;;
11598;SDS011;5855;48.840;9.188;2022-08-03T00:17:29;4.10;;;3.47;;
11598;SDS011;5855;48.840;9.188;2022-08-03T00:19:55;4.05;;;3.10;;
11598;SDS011;5855;48.840;9.188;2022-08-03T00:22:22;3.75;;;3.28;;
11598;SDS011;5855;48.840;9.188;2022-08-03T00:24:49;3.47;;;3.17;;
11598;SDS011;5855;48.840;9.188;2022-08-03T00:27:16;3.83;;;3.53;;
11598;SDS011;5855;48.840;9.188;2022-08-03T00:29:43;4.15;;;3.42;;
11598;SDS011;5855;48.840;9.188;2022-08-03T00:32:09;4.75;;;3.42;;
11598;SDS011;5855;48.840;9.188;2022-08-03T00:34:38;4.95;;;3.55;;
11598;SDS011;5855;48.840;9.188;2022-08-03T00:37:04;4.90;;;3.60;;
11598;SDS011;5855;48.840;9.188;2022-08-03T00:39:31;4.68;;;3.38;;
11598;SDS011;5855;48.840;9.188;2022-08-03T00:42:00;4.00;;;3.60;;
11598;SDS011;5855;48.840;9.188;2022-08-03T00:44:28;3.95;;;3.50;;
11598;SDS011;5855;48.840;9.188;2022-08-03T00:46:54;5.00;;;3.67;;
11598;SDS011;5855;48.840;9.188;2022-08-03T00:49:21;5.70;;;3.70;;
11598;SDS011;5855;48.840;9.188;2022-08-03T00:51:50;4.68;;;3.67;;
11598;SDS011;5855;48.840;9.188;2022-08-03T00:54:17;5.45;;;3.45;;
11598;SDS011;5855;48.840;9.188;2022-08-03T00:56:45;4.55;;;3.30;;
11598;SDS011;5855;48.840;9.188;2022-08-03T00:59:12;5.35;;;3.90;;
11598;SDS011;5855;48.840;9.188;2022-08-03T01:01:41;7.03;;;4.00;;
11598;SDS011;5855;48.840;9.188;2022-08-03T01:04:07;4.38;;;3.60;;
11598;SDS011;5855;48.840;9.188;2022-08-03T01:06:35;4.80;;;3.72;;
11598;SDS011;5855;48.840;9.188;2022-08-03T01:09:17;4.00;;;3.60;;
11598;SDS011;5855;48.840;9.188;2022-08-03T01:11:49;4.80;;;3.78;;
11598;SDS011;5855;48.840;9.188;2022-08-03T01:14:33;5.10;;;4.07;;
11598;SDS011;5855;48.840;9.188;2022-08-03T01:17:07;5.15;;;3.75;;
11598;SDS011;5855;48.840;9.188;2022-08-03T01:19:49;4.60;;;3.63;;
11598;SDS011;5855;48.840;9.188;2022-08-03T01:22:35;7.00;;;3.92;;
11598;SDS011;5855;48.840;9.188;2022-08-03T01:25:21;6.25;;;4.03;;
11598;SDS011;5855;48.840;9.188;2022-08-03T01:27:57;5.88;;;3.92;;
11598;SDS011;5855;48.840;9.188;2022-08-03T01:30:36;6.47;;;3.60;;
11598;SDS011;5855;48.840;9.188;2022-08-03T01:33:09;4.15;;;3.30;;
11598;SDS011;5855;48.840;9.188;2022-08-03T01:35:42;5.03;;;3.60;;
11598;SDS011;5855;48.840;9.188;2022-08-03T01:38:12;3.88;;;3.50;;
11598;SDS011;5855;48.840;9.188;2022-08-03T01:40:43;4.85;;;3.60;;
11598;SDS011;5855;48.840;9.188;2022-08-03T01:43:14;6.00;;;3.88;;
11598;SDS011;5855;48.840;9.188;2022-08-03T01:45:44;3.60;;;3.30;;
11598;SDS011;5855;48.840;9.188;2022-08-03T01:48:12;5.85;;;3.90;;
11598;SDS011;5855;48.840;9.188;2022-08-03T01:50:42;4.15;;;3.72;;
11598;SDS011;5855;48.840;9.188;2022-08-03T01:53:12;5.50;;;3.30;;
11598;SDS011;5855;48.840;9.188;2022-08-03T01:55:40;3.95;;;3.28;;
11598;SDS011;5855;48.840;9.188;2022-08-03T01:58:09;3.65;;;3.35;;
11598;SDS011;5855;48.840;9.188;2022-08-03T02:00:38;4.45;;;3.80;;
11598;SDS011;5855;48.840;9.188;2022-08-03T02:03:07;4.53;;;3.53;;
11598;SDS011;5855;48.840;9.188;2022-08-03T02:05:38;4.20;;;3.80;;
11598;SDS011;5855;48.840;9.188;2022-08-03T02:08:06;4.30;;;3.90;;
11598;SDS011;5855;48.840;9.188;2022-08-03T02:10:36;3.60;;;3.30;;
11598;SDS011;5855;48.840;9.188;2022-08-03T02:13:06;4.57;;;3.60;;
11598;SDS011;5855;48.840;9.188;2022-08-03T02:15:35;4.20;;;3.80;;
11598;SDS011;5855;48.840;9.188;2022-08-03T02:18:04;5.25;;;3.70;;
11598;SDS011;5855;48.840;9.188;2022-08-03T02:20:34;4.55;;;3.67;;
11598;SDS011;5855;48.840;9.188;2022-08-03T02:23:03;4.35;;;3.60;;
11598;SDS011;5855;48.840;9.188;2022-08-03T02:25:31;4.97;;;3.55;;
11598;SDS011;5855;48.840;9.188;2022-08-03T02:28:00;5.20;;;3.85;;
11598;SDS011;5855;48.840;9.188;2022-08-03T02:30:33;3.95;;;3.55;;
11598;SDS011;5855;48.840;9.188;2022-08-03T02:33:04;5.28;;;3.55;;
11598;SDS011;5855;48.840;9.188;2022-08-03T02:35:37;7.38;;;3.75;;
11598;SDS011;5855;48.840;9.188;2022-08-03T02:38:06;4.35;;;3.80;;
11598;SDS011;5855;48.840;9.188;2022-08-03T02:40:35;4.15;;;3.75;;
11598;SDS011;5855;48.840;9.188;2022-08-03T02:43:04;5.20;;;3.67;;
11598;SDS011;5855;48.840;9.188;2022-08-03T02:45:34;3.75;;;3.45;;
11598;SDS011;5855;48.840;9.188;2022-08-03T02:48:06;4.30;;;3.90;;
11598;SDS011;5855;48.840;9.188;2022-08-03T02:50:34;4.28;;;3.85;;
11598;SDS011;5855;48.840;9.188;2022-08-03T02:53:04;4.60;;;3.95;;
11598;SDS011;5855;48.840;9.188;2022-08-03T02:55:32;5.63;;;4.38;;
11598;SDS011;5855;48.840;9.188;2022-08-03T02:58:01;4.85;;;4.00;;
11598;SDS011;5855;48.840;9.188;2022-08-03T03:00:29;3.90;;;3.50;;
11598;SDS011;5855;48.840;9.188;2022-08-03T03:02:57;4.55;;;3.22;;
11598;SDS011;5855;48.840;9.188;2022-08-03T03:05:25;4.43;;;4.00;;
11598;SDS011;5855;48.840;9.188;2022-08-03T03:07:53;4.97;;;3.55;;
11598;SDS011;5855;48.840;9.188;2022-08-03T03:10:22;6.43;;;4.07;;
11598;SDS011;5855;48.840;9.188;2022-08-03T03:12:51;5.10;;;4.32;;
11598;SDS011;5855;48.840;9.188;2022-08-03T03:15:20;5.60;;;3.70;;
11598;SDS011;5855;48.840;9.188;2022-08-03T03:17:48;5.80;;;4.50;;
11598;SDS011;5855;48.840;9.188;2022-08-03T03:20:17;5.70;;;4.10;;
11598;SDS011;5855;48.840;9.188;2022-08-03T03:22:45;4.93;;;4.45;;
11598;SDS011;5855;48.840;9.188;2022-08-03T03:25:15;5.30;;;4.80;;
11598;SDS011;5855;48.840;9.188;2022-08-03T03:27:43;4.70;;;4.28;;
11598;SDS011;5855;48.840;9.188;2022-08-03T03:30:11;5.70;;;4.00;;
11598;SDS011;5855;48.840;9.188;2022-08-03T03:32:38;6.18;;;4.10;;
11598;SDS011;5855;48.840;9.188;2022-08-03T03:35:06;7.40;;;4.30;;
11598;SDS011;5855;48.840;9.188;2022-08-03T03:37:34;5.95;;;4.32;;
11598;SDS011;5855;48.840;9.188;2022-08-03T03:40:02;5.13;;;4.00;;
11598;SDS011;5855;48.840;9.188;2022-08-03T03:42:31;6.70;;;4.45;;
11598;SDS011;5855;48.840;9.188;2022-08-03T03:44:58;7.35;;;4.32;;
11598;SDS011;5855;48.840;9.188;2022-08-03T03:47:28;4.65;;;3.78;;
11598;SDS011;5855;48.840;9.188;2022-08-03T03:49:55;5.78;;;4.57;;
11598;SDS011;5855;48.840;9.188;2022-08-03T03:52:22;5.38;;;4.07;;
11598;SDS011;5855;48.840;9.188;2022-08-03T03:54:49;4.43;;;4.00;;
11598;SDS011;5855;48.840;9.188;2022-08-03T03:57:16;6.78;;;4.35;;
11598;SDS011;5855;48.840;9.188;2022-08-03T03:59:44;5.10;;;4.38;;
11598;SDS011;5855;48.840;9.188;2022-08-03T04:02:11;5.38;;;4.80;;
11598;SDS011;5855;48.840;9.188;2022-08-03T04:04:38;6.60;;;4.70;;
11598;SDS011;5855;48.840;9.188;2022-08-03T04:07:23;5.25;;;4.30;;
11598;SDS011;5855;48.840;9.188;2022-08-03T04:10:09;6.90;;;4.13;;
11598;SDS011;5855;48.840;9.188;2022-08-03T04:12:58;6.07;;;3.95;;
11598;SDS011;5855;48.840;9.188;2022-08-03T04:15:28;4.63;;;4.10;;
11598;SDS011;5855;48.840;9.188;2022-08-03T04:17:58;4.32;;;3.70;;
11598;SDS011;5855;48.840;9.188;2022-08-03T04:20:27;4.30;;;3.90;;
11598;SDS011;5855;48.840;9.188;2022-08-03T04:22:57;6.95;;;4.57;;
11598;SDS011;5855;48.840;9.188;2022-08-03T04:25:26;5.88;;;3.85;;
11598;SDS011;5855;48.840;9.188;2022-08-03T04:27:55;5.88;;;3.90;;
11598;SDS011;5855;48.840;9.188;2022-08-03T04:30:26;6.10;;;4.20;;
11598;SDS011;5855;48.840;9.188;2022-08-03T04:32:55;5.78;;;4.40;;
11598;SDS011;5855;48.840;9.188;2022-08-03T04:35:23;5.93;;;4.63;;
11598;SDS011;5855;48.840;9.188;2022-08-03T04:37:54;5.10;;;4.60;;
11598;SDS011;5855;48.840;9.188;2022-08-03T04:40:26;6.25;;;4.53;;
11598;SDS011;5855;48.840;9.188;2022-08-03T04:42:58;5.22;;;4.78;;
11598;SDS011;5855;48.840;9.188;2022-08-03T04:45:27;6.60;;;4.85;;
11598;SDS011;5855;48.840;9.188;2022-08-03T04:47:56;6.68;;;5.03;;
11598;SDS011;5855;48.840;9.188;2022-08-03T04:50:24;7.20;;;4.57;;
11598;SDS011;5855;48.840;9.188;2022-08-03T04:52:52;5.10;;;4.57;;
11598;SDS011;5855;48.840;9.188;2022-08-03T04:55:25;5.72;;;5.18;;
11598;SDS011;5855;48.840;9.188;2022-08-03T04:57:52;5.68;;;4.95;;
11598;SDS011;5855;48.840;9.188;2022-08-03T05:00:19;8.02;;;4.85;;
11598;SDS011;5855;48.840;9.188;2022-08-03T05:02:46;7.63;;;5.03;;
11598;SDS011;5855;48.840;9.188;2022-08-03T05:05:15;6.75;;;4.90;;
11598;SDS011;5855;48.840;9.188;2022-08-03T05:07:42;10.02;;;5.20;;
11598;SDS011;5855;48.840;9.188;2022-08-03T05:10:09;5.90;;;4.75;;
11598;SDS011;5855;48.840;9.188;2022-08-03T05:12:37;5.78;;;4.68;;
11598;SDS011;5855;48.840;9.188;2022-08-03T05:15:05;6.90;;;4.93;;
11598;SDS011;5855;48.840;9.188;2022-08-03T05:17:33;5.55;;;4.63;;
11598;SDS011;5855;48.840;9.188;2022-08-03T05:20:00;7.38;;;4.55;;
11598;SDS011;5855;48.840;9.188;2022-08-03T05:22:30;6.88;;;4.70;;
11598;SDS011;5855;48.840;9.188;2022-08-03T05:24:57;9.02;;;5.00;;
11598;SDS011;5855;48.840;9.188;2022-08-03T05:27:24;5.78;;;4.90;;
11598;SDS011;5855;48.840;9.188;2022-08-03T05:29:50;7.60;;;4.90;;
11598;SDS011;5855;48.840;9.188;2022-08-03T05:32:17;8.20;;;4.80;;
11598;SDS011;5855;48.840;9.188;2022-08-03T05:34:44;8.73;;;5.20;;
11598;SDS011;5855;48.840;9.188;2022-08-03T05:37:11;8.07;;;5.00;;
11598;SDS011;5855;48.840;9.188;2022-08-03T05:39:40;6.80;;;5.03;;
11598;SDS011;5855;48.840;9.188;2022-08-03T05:42:06;5.80;;;4.93;;
11598;SDS011;5855;48.840;9.188;2022-08-03T05:44:34;5.70;;;4.93;;
11598;SDS011;5855;48.840;9.188;2022-08-03T05:47:02;5.60;;;4.88;;
11598;SDS011;5855;48.840;9.188;2022-08-03T05:49:29;5.32;;;4.82;;
11598;SDS011;5855;48.840;9.188;2022-08-03T05:51:56;7.22;;;4.80;;
11598;SDS011;5855;48.840;9.188;2022-08-03T05:54:23;9.40;;;4.97;;
11598;SDS011;5855;48.840;9.188;2022-08-03T05:56:51;5.78;;;5.18;;
11598;SDS011;5855;48.840;9.188;2022-08-03T05:59:18;7.35;;;5.18;;
11598;SDS011;5855;48.840;9.188;2022-08-03T06:01:45;7.47;;;4.95;;
11598;SDS011;5855;48.840;9.188;2022-08-03T06:04:12;8.13;;;5.00;;
11598;SDS011;5855;48.840;9.188;2022-08-03T06:06:39;6.47;;;5.07;;
11598;SDS011;5855;48.840;9.188;2022-08-03T06:09:07;8.15;;;4.88;;
11598;SDS011;5855;48.840;9.188;2022-08-03T06:11:34;8.40;;;5.28;;
11598;SDS011;5855;48.840;9.188;2022-08-03T06:14:03;5.25;;;4.70;;
11598;SDS011;5855;48.840;9.188;2022-08-03T06:16:30;6.78;;;4.63;;
11598;SDS011;5855;48.840;9.188;2022-08-03T06:18:57;8.63;;;5.30;;
11598;SDS011;5855;48.840;9.188;2022-08-03T06:21:24;7.25;;;4.85;;
11598;SDS011;5855;48.840;9.188;2022-08-03T06:23:51;7.93;;;4.50;;
11598;SDS011;5855;48.840;9.188;2022-08-03T06:26:18;8.27;;;4.68;;
11598;SDS011;5855;48.840;9.188;2022-08-03T06:28:45;7.43;;;4.25;;
11598;SDS011;5855;48.840;9.188;2022-08-03T06:31:14;6.75;;;4.60;;
11598;SDS011;5855;48.840;9.188;2022-08-03T06:33:41;6.93;;;4.28;;
11598;SDS011;5855;48.840;9.188;2022-08-03T06:36:08;4.80;;;4.30;;
11598;SDS011;5855;48.840;9.188;2022-08-03T06:38:35;6.78;;;4.50;;
11598;SDS011;5855;48.840;9.188;2022-08-03T06:41:02;6.78;;;4.10;;
11598;SDS011;5855;48.840;9.188;2022-08-03T06:43:29;5.63;;;4.00;;
11598;SDS011;5855;48.840;9.188;2022-08-03T06:45:55;7.57;;;4.32;;
11598;SDS011;5855;48.840;9.188;2022-08-03T06:48:24;8.85;;;4.00;;
11598;SDS011;5855;48.840;9.188;2022-08-03T06:50:50;6.05;;;4.10;;
11598;SDS011;5855;48.840;9.188;2022-08-03T06:53:17;8.45;;;3.88;;
11598;SDS011;5855;48.840;9.188;2022-08-03T06:55:44;3.97;;;3.53;;
11598;SDS011;5855;48.840;9.188;2022-08-03T06:58:11;5.82;;;3.50;;
11598;SDS011;5855;48.840;9.188;2022-08-03T07:00:38;6.25;;;3.58;;
11598;SDS011;5855;48.840;9.188;2022-08-03T07:03:05;5.03;;;3.45;;
11598;SDS011;5855;48.840;9.188;2022-08-03T07:05:33;3.53;;;3.08;;
11598;SDS011;5855;48.840;9.188;2022-08-03T07:08:00;6.28;;;3.30;;
11598;SDS011;5855;48.840;9.188;2022-08-03T07:10:27;5.38;;;3.10;;
11598;SDS011;5855;48.840;9.188;2022-08-03T07:12:54;4.97;;;3.50;;
11598;SDS011;5855;48.840;9.188;2022-08-03T07:15:21;4.30;;;3.33;;
11598;SDS011;5855;48.840;9.188;2022-08-03T07:17:48;6.47;;;3.60;;
11598;SDS011;5855;48.840;9.188;2022-08-03T07:20:15;8.90;;;3.15;;
11598;SDS011;5855;48.840;9.188;2022-08-03T07:22:43;5.53;;;3.40;;
11598;SDS011;5855;48.840;9.188;2022-08-03T07:25:10;6.00;;;3.25;;
11598;SDS011;5855;48.840;9.188;2022-08-03T07:27:37;4.10;;;2.80;;
11598;SDS011;5855;48.840;9.188;2022-08-03T07:30:08;5.30;;;3.05;;
11598;SDS011;5855;48.840;9.188;2022-08-03T07:32:35;2.90;;;2.60;;
11598;SDS011;5855;48.840;9.188;2022-08-03T07:35:03;3.92;;;2.78;;
11598;SDS011;5855;48.840;9.188;2022-08-03T07:37:31;4.18;;;2.92;;
11598;SDS011;5855;48.840;9.188;2022-08-03T07:39:59;4.97;;;2.70;;
11598;SDS011;5855;48.840;9.188;2022-08-03T07:42:28;4.55;;;2.30;;
11598;SDS011;5855;48.840;9.188;2022-08-03T07:44:56;3.38;;;2.42;;
11598;SDS011;5855;48.840;9.188;2022-08-03T07:47:23;4.03;;;2.67;;
11598;SDS011;5855;48.840;9.188;2022-08-03T07:49:52;3.97;;;2.20;;
11598;SDS011;5855;48.840;9.188;2022-08-03T07:52:20;6.78;;;2.30;;
11598;SDS011;5855;48.840;9.188;2022-08-03T07:55:06;2.47;;;2.28;;
11598;SDS011;5855;48.840;9.188;2022-08-03T07:57:34;3.67;;;2.28;;
11598;SDS011;5855;48.840;9.188;2022-08-03T08:00:01;3.10;;;2.00;;
11598;SDS011;5855;48.840;9.188;2022-08-03T08:02:29;3.67;;;2.30;;
11598;SDS011;5855;48.840;9.188;2022-08-03T08:04:56;3.35;;;2.30;;
11598;SDS011;5855;48.840;9.188;2022-08-03T08:07:23;2.58;;;2.35;;
11598;SDS011;5855;48.840;9.188;2022-08-03T08:09:50;2.35;;;2.15;;
11598;SDS011;5855;48.840;9.188;2022-08-03T08:12:18;2.60;;;2.00;;
11598;SDS011;5855;48.840;9.188;2022-08-03T08:14:45;2.13;;;1.88;;
11598;SDS011;5855;48.840;9.188;2022-08-03T08:17:12;2.72;;;1.88;;
11598;SDS011;5855;48.840;9.188;2022-08-03T08:19:39;2.47;;;1.92;;
11598;SDS011;5855;48.840;9.188;2022-08-03T08:22:06;3.88;;;2.15;;
11598;SDS011;5855;48.840;9.188;2022-08-03T08:24:33;3.63;;;1.90;;
11598;SDS011;5855;48.840;9.188;2022-08-03T08:27:00;4.57;;;1.70;;
11598;SDS011;5855;48.840;9.188;2022-08-03T08:29:28;3.63;;;1.52;;
11598;SDS011;5855;48.840;9.188;2022-08-03T08:31:55;2.88;;;1.67;;
11598;SDS011;5855;48.840;9.188;2022-08-03T08:34:22;2.10;;;1.63;;
11598;SDS011;5855;48.840;9.188;2022-08-03T08:36:49;3.40;;;1.65;;
11598;SDS011;5855;48.840;9.188;2022-08-03T08:39:16;1.70;;;1.50;;
11598;SDS011;5855;48.840;9.188;2022-08-03T08:41:42;1.67;;;1.20;;
11598;SDS011;5855;48.840;9.188;2022-08-03T08:44:09;1.77;;;1.55;;
11598;SDS011;5855;48.840;9.188;2022-08-03T08:46:38;2.78;;;1.30;;
11598;SDS011;5855;48.840;9.188;2022-08-03T08:49:05;1.80;;;1.40;;
11598;SDS011;5855;48.840;9.188;2022-08-03T08:51:34;1.35;;;1.25;;
11598;SDS011;5855;48.840;9.188;2022-08-03T08:54:05;2.15;;;1.30;;
11598;SDS011;5855;48.840;9.188;2022-08-03T08:56:33;1.58;;;1.20;;
11598;SDS011;5855;48.840;9.188;2022-08-03T08:59:02;2.05;;;1.30;;
11598;SDS011;5855;48.840;9.188;2022-08-03T09:01:29;1.58;;;1.30;;
11598;SDS011;5855;48.840;9.188;2022-08-03T09:03:58;2.13;;;1.10;;
11598;SDS011;5855;48.840;9.188;2022-08-03T09:06:25;2.03;;;1.20;;
11598;SDS011;5855;48.840;9.188;2022-08-03T09:08:51;1.58;;;1.10;;
11598;SDS011;5855;48.840;9.188;2022-08-03T09:11:22;0.80;;;0.80;;
11598;SDS011;5855;48.840;9.188;2022-08-03T09:13:49;1.25;;;1.00;;
11598;SDS011;5855;48.840;9.188;2022-08-03T09:16:17;1.23;;;1.13;;
11598;SDS011;5855;48.840;9.188;2022-08-03T09:18:46;1.10;;;1.00;;
11598;SDS011;5855;48.840;9.188;2022-08-03T09:21:16;2.08;;;1.10;;
11598;SDS011;5855;48.840;9.188;2022-08-03T09:23:45;1.13;;;1.10;;
11598;SDS011;5855;48.840;9.188;2022-08-03T09:26:18;2.08;;;0.90;;
11598;SDS011;5855;48.840;9.188;2022-08-03T09:28:46;1.63;;;1.00;;
11598;SDS011;5855;48.840;9.188;2022-08-03T09:31:28;1.23;;;0.95;;
11598;SDS011;5855;48.840;9.188;2022-08-03T09:33:59;1.25;;;1.13;;
11598;SDS011;5855;48.840;9.188;2022-08-03T09:36:37;1.70;;;1.00;;
11598;SDS011;5855;48.840;9.188;2022-08-03T09:39:06;1.00;;;1.00;;
11598;SDS011;5855;48.840;9.188;2022-08-03T09:41:35;2.80;;;1.13;;
11598;SDS011;5855;48.840;9.188;2022-08-03T09:44:03;3.28;;;1.20;;
11598;SDS011;5855;48.840;9.188;2022-08-03T09:46:30;2.72;;;1.10;;
11598;SDS011;5855;48.840;9.188;2022-08-03T09:49:10;2.15;;;1.00;;
11598;SDS011;5855;48.840;9.188;2022-08-03T09:51:38;1.13;;;1.02;;
11598;SDS011;5855;48.840;9.188;2022-08-03T09:54:05;1.38;;;1.10;;
11598;SDS011;5855;48.840;9.188;2022-08-03T09:56:42;1.92;;;1.30;;
11598;SDS011;5855;48.840;9.188;2022-08-03T09:59:12;1.45;;;1.05;;
11598;SDS011;5855;48.840;9.188;2022-08-03T10:01:49;1.10;;;1.00;;
11598;SDS011;5855;48.840;9.188;2022-08-03T10:04:16;1.63;;;0.90;;
11598;SDS011;5855;48.840;9.188;2022-08-03T10:06:45;1.52;;;1.17;;
11598;SDS011;5855;48.840;9.188;2022-08-03T10:09:27;1.20;;;1.00;;
11598;SDS011;5855;48.840;9.188;2022-08-03T10:11:54;4.47;;;1.30;;
11598;SDS011;5855;48.840;9.188;2022-08-03T10:14:21;1.20;;;1.10;;
11598;SDS011;5855;48.840;9.188;2022-08-03T10:16:50;2.05;;;1.25;;
11598;SDS011;5855;48.840;9.188;2022-08-03T10:19:17;2.95;;;1.20;;
11598;SDS011;5855;48.840;9.188;2022-08-03T10:21:47;1.67;;;1.17;;
11598;SDS011;5855;48.840;9.188;2022-08-03T10:24:16;1.40;;;1.30;;
11598;SDS011;5855;48.840;9.188;2022-08-03T10:26:50;1.95;;;1.02;;
11598;SDS011;5855;48.840;9.188;2022-08-03T10:29:20;1.13;;;0.90;;
11598;SDS011;5855;48.840;9.188;2022-08-03T10:31:49;2.45;;;1.20;;
11598;SDS011;5855;48.840;9.188;2022-08-03T10:34:21;1.35;;;1.10;;
11598;SDS011;5855;48.840;9.188;2022-08-03T10:36:55;1.38;;;1.13;;
11598;SDS011;5855;48.840;9.188;2022-08-03T10:39:24;1.30;;;1.20;;
11598;SDS011;5855;48.840;9.188;2022-08-03T10:41:54;1.48;;;1.10;;
11598;SDS011;5855;48.840;9.188;2022-08-03T10:44:23;1.95;;;1.10;;
11598;SDS011;5855;48.840;9.188;2022-08-03T10:46:53;0.93;;;0.90;;
11598;SDS011;5855;48.840;9.188;2022-08-03T10:49:21;1.20;;;1.10;;
11598;SDS011;5855;48.840;9.188;2022-08-03T10:51:49;1.60;;;1.00;;
11598;SDS011;5855;48.840;9.188;2022-08-03T10:57:43;2.50;;;1.30;;
11598;SDS011;5855;48.840;9.188;2022-08-03T11:00:11;1.52;;;1.10;;
11598;SDS011;5855;48.840;9.188;2022-08-03T11:05:35;1.20;;;1.20;;
11598;SDS011;5855;48.840;9.188;2022-08-03T11:08:23;2.67;;;1.00;;
11598;SDS011;5855;48.840;9.188;2022-08-03T11:11:00;0.90;;;0.90;;
11598;SDS011;5855;48.840;9.188;2022-08-03T11:13:29;1.27;;;1.17;;
11598;SDS011;5855;48.840;9.188;2022-08-03T11:15:59;1.42;;;1.20;;
11598;SDS011;5855;48.840;9.188;2022-08-03T11:18:27;1.75;;;1.10;;
11598;SDS011;5855;48.840;9.188;2022-08-03T11:20:55;1.05;;;1.00;;
11598;SDS011;5855;48.840;9.188;2022-08-03T11:23:39;1.23;;;1.10;;
11598;SDS011;5855;48.840;9.188;2022-08-03T11:26:09;1.23;;;1.10;;
11598;SDS011;5855;48.840;9.188;2022-08-03T11:28:37;0.90;;;0.90;;
11598;SDS011;5855;48.840;9.188;2022-08-03T11:34:10;2.67;;;1.08;;
11598;SDS011;5855;48.840;9.188;2022-08-03T11:39:45;1.15;;;1.05;;
11598;SDS011;5855;48.840;9.188;2022-08-03T11:45:13;1.20;;;1.10;;
11598;SDS011;5855;48.840;9.188;2022-08-03T11:47:40;1.60;;;1.00;;
11598;SDS011;5855;48.840;9.188;2022-08-03T11:50:08;2.15;;;1.00;;
11598;SDS011;5855;48.840;9.188;2022-08-03T11:52:37;1.13;;;1.00;;
11598;SDS011;5855;48.840;9.188;2022-08-03T11:55:09;1.05;;;0.95;;
11598;SDS011;5855;48.840;9.188;2022-08-03T11:57:40;0.80;;;0.80;;
11598;SDS011;5855;48.840;9.188;2022-08-03T12:00:20;1.60;;;0.85;;
11598;SDS011;5855;48.840;9.188;2022-08-03T12:02:55;3.13;;;1.00;;
11598;SDS011;5855;48.840;9.188;2022-08-03T12:08:16;1.58;;;0.80;;
11598;SDS011;5855;48.840;9.188;2022-08-03T12:10:48;1.30;;;0.90;;
11598;SDS011;5855;48.840;9.188;2022-08-03T12:13:17;1.20;;;1.10;;
11598;SDS011;5855;48.840;9.188;2022-08-03T12:15:49;3.92;;;0.85;;
11598;SDS011;5855;48.840;9.188;2022-08-03T12:18:17;0.80;;;0.80;;
11598;SDS011;5855;48.840;9.188;2022-08-03T12:20:46;1.20;;;1.00;;
11598;SDS011;5855;48.840;9.188;2022-08-03T12:23:13;1.27;;;0.90;;
11598;SDS011;5855;48.840;9.188;2022-08-03T12:25:41;0.70;;;0.70;;
11598;SDS011;5855;48.840;9.188;2022-08-03T12:28:13;1.98;;;0.90;;
11598;SDS011;5855;48.840;9.188;2022-08-03T12:30:45;0.80;;;0.80;;
11598;SDS011;5855;48.840;9.188;2022-08-03T12:33:17;0.90;;;0.90;;
11598;SDS011;5855;48.840;9.188;2022-08-03T12:35:46;0.70;;;0.70;;
11598;SDS011;5855;48.840;9.188;2022-08-03T12:38:18;1.83;;;1.00;;
11598;SDS011;5855;48.840;9.188;2022-08-03T12:40:56;0.90;;;0.90;;
11598;SDS011;5855;48.840;9.188;2022-08-03T12:43:27;0.98;;;0.70;;
11598;SDS011;5855;48.840;9.188;2022-08-03T12:46:09;1.25;;;0.80;;
11598;SDS011;5855;48.840;9.188;2022-08-03T12:51:28;0.90;;;0.90;;
11598;SDS011;5855;48.840;9.188;2022-08-03T12:53:57;1.88;;;0.80;;
11598;SDS011;5855;48.840;9.188;2022-08-03T12:56:24;0.80;;;0.70;;
11598;SDS011;5855;48.840;9.188;2022-08-03T12:58:52;1.50;;;0.70;;
11598;SDS011;5855;48.840;9.188;2022-08-03T13:01:20;1.77;;;0.80;;
11598;SDS011;5855;48.840;9.188;2022-08-03T13:03:49;1.33;;;0.90;;
11598;SDS011;5855;48.840;9.188;2022-08-03T13:06:19;0.70;;;0.70;;
11598;SDS011;5855;48.840;9.188;2022-08-03T13:08:46;1.75;;;0.85;;
11598;SDS011;5855;48.840;9.188;2022-08-03T13:11:17;0.60;;;0.60;;
11598;SDS011;5855;48.840;9.188;2022-08-03T13:13:45;1.02;;;0.82;;
11598;SDS011;5855;48.840;9.188;2022-08-03T13:16:12;0.65;;;0.65;;
11598;SDS011;5855;48.840;9.188;2022-08-03T13:18:40;1.02;;;0.90;;
11598;SDS011;5855;48.840;9.188;2022-08-03T13:21:07;0.80;;;0.80;;
11598;SDS011;5855;48.840;9.188;2022-08-03T13:23:34;0.68;;;0.63;;
11598;SDS011;5855;48.840;9.188;2022-08-03T13:26:01;0.68;;;0.68;;
11598;SDS011;5855;48.840;9.188;2022-08-03T13:28:28;1.13;;;0.90;;
11598;SDS011;5855;48.840;9.188;2022-08-03T13:30:55;0.70;;;0.60;;
11598;SDS011;5855;48.840;9.188;2022-08-03T13:33:22;1.65;;;0.90;;
11598;SDS011;5855;48.840;9.188;2022-08-03T13:35:50;0.82;;;0.82;;
11598;SDS011;5855;48.840;9.188;2022-08-03T13:38:17;1.35;;;0.70;;
11598;SDS011;5855;48.840;9.188;2022-08-03T13:40:44;1.20;;;0.90;;
11598;SDS011;5855;48.840;9.188;2022-08-03T13:43:11;0.70;;;0.70;;
11598;SDS011;5855;48.840;9.188;2022-08-03T13:45:37;1.15;;;0.85;;
11598;SDS011;5855;48.840;9.188;2022-08-03T13:48:05;1.10;;;0.65;;
11598;SDS011;5855;48.840;9.188;2022-08-03T13:50:32;1.25;;;0.70;;
11598;SDS011;5855;48.840;9.188;2022-08-03T13:53:00;0.98;;;0.60;;
11598;SDS011;5855;48.840;9.188;2022-08-03T13:55:27;2.00;;;0.70;;
11598;SDS011;5855;48.840;9.188;2022-08-03T13:57:54;2.58;;;0.65;;
11598;SDS011;5855;48.840;9.188;2022-08-03T14:00:20;0.55;;;0.55;;
11598;SDS011;5855;48.840;9.188;2022-08-03T14:02:50;1.33;;;0.70;;
11598;SDS011;5855;48.840;9.188;2022-08-03T14:05:17;3.20;;;0.70;;
11598;SDS011;5855;48.840;9.188;2022-08-03T14:07:44;2.13;;;0.80;;
11598;SDS011;5855;48.840;9.188;2022-08-03T14:10:13;1.10;;;0.77;;
11598;SDS011;5855;48.840;9.188;2022-08-03T14:12:41;1.85;;;0.60;;
11598;SDS011;5855;48.840;9.188;2022-08-03T14:15:09;1.10;;;0.65;;
11598;SDS011;5855;48.840;9.188;2022-08-03T14:17:37;0.80;;;0.60;;
11598;SDS011;5855;48.840;9.188;2022-08-03T14:20:05;1.15;;;0.90;;
11598;SDS011;5855;48.840;9.188;2022-08-03T14:22:32;1.00;;;0.60;;
11598;SDS011;5855;48.840;9.188;2022-08-03T14:24:59;0.95;;;0.70;;
11598;SDS011;5855;48.840;9.188;2022-08-03T14:27:27;0.80;;;0.80;;
11598;SDS011;5855;48.840;9.188;2022-08-03T14:29:54;1.15;;;0.70;;
11598;SDS011;5855;48.840;9.188;2022-08-03T14:32:24;1.23;;;0.70;;
11598;SDS011;5855;48.840;9.188;2022-08-03T14:34:51;2.45;;;0.82;;
11598;SDS011;5855;48.840;9.188;2022-08-03T14:37:18;0.80;;;0.80;;
11598;SDS011;5855;48.840;9.188;2022-08-03T14:39:45;0.77;;;0.60;;
11598;SDS011;5855;48.840;9.188;2022-08-03T14:42:12;0.60;;;0.60;;
11598;SDS011;5855;48.840;9.188;2022-08-03T14:44:42;1.40;;;0.70;;
11598;SDS011;5855;48.840;9.188;2022-08-03T14:47:08;0.70;;;0.70;;
11598;SDS011;5855;48.840;9.188;2022-08-03T14:49:35;2.50;;;0.60;;
11598;SDS011;5855;48.840;9.188;2022-08-03T14:52:02;0.93;;;0.70;;
11598;SDS011;5855;48.840;9.188;2022-08-03T14:54:30;0.70;;;0.60;;
11598;SDS011;5855;48.840;9.188;2022-08-03T14:56:57;0.63;;;0.50;;
11598;SDS011;5855;48.840;9.188;2022-08-03T14:59:24;0.82;;;0.65;;
11598;SDS011;5855;48.840;9.188;2022-08-03T15:01:52;0.40;;;0.40;;
11598;SDS011;5855;48.840;9.188;2022-08-03T15:04:19;1.45;;;0.60;;
11598;SDS011;5855;48.840;9.188;2022-08-03T15:06:46;0.50;;;0.50;;
11598;SDS011;5855;48.840;9.188;2022-08-03T15:09:13;0.50;;;0.50;;
11598;SDS011;5855;48.840;9.188;2022-08-03T15:11:40;1.65;;;0.75;;
11598;SDS011;5855;48.840;9.188;2022-08-03T15:14:07;1.67;;;0.70;;
11598;SDS011;5855;48.840;9.188;2022-08-03T15:16:34;1.25;;;0.60;;
11598;SDS011;5855;48.840;9.188;2022-08-03T15:19:02;0.70;;;0.68;;
11598;SDS011;5855;48.840;9.188;2022-08-03T15:21:29;0.77;;;0.60;;
11598;SDS011;5855;48.840;9.188;2022-08-03T15:23:56;1.33;;;0.80;;
11598;SDS011;5855;48.840;9.188;2022-08-03T15:26:23;1.52;;;0.60;;
11598;SDS011;5855;48.840;9.188;2022-08-03T15:28:50;1.25;;;0.50;;
11598;SDS011;5855;48.840;9.188;2022-08-03T15:31:19;1.58;;;0.88;;